sensor_id;sensor_type;location;lat;lon;timestamp;P1;durP1;ratioP1;P2;durP2;ratioP2
64075;SDS011;50327;51.328;12.324;2023-02-21T00:02:12;6.07;;;2.78;;
64075;SDS011;50327;51.328;12.324;2023-02-21T00:04:56;6.25;;;2.95;;
64075;SDS011;50327;51.328;12.324;2023-02-21T00:07:40;6.50;;;2.45;;
64075;SDS011;50327;51.328;12.324;2023-02-21T00:10:24;6.38;;;2.85;;
64075;SDS011;50327;51.328;12.324;2023-02-21T00:13:08;9.30;;;3.55;;
64075;SDS011;50327;51.328;12.324;2023-02-21T00:15:53;5.75;;;3.00;;
64075;SDS011;50327;51.328;12.324;2023-02-21T00:18:37;8.10;;;3.22;;
64075;SDS011;50327;51.328;12.324;2023-02-21T00:21:21;6.40;;;3.53;;
64075;SDS011;50327;51.328;12.324;2023-02-21T00:24:06;6.70;;;3.45;;
64075;SDS011;50327;51.328;12.324;2023-02-21T00:26:50;6.80;;;3.22;;
64075;SDS011;50327;51.328;12.324;2023-02-21T00:29:34;7.88;;;3.08;;
64075;SDS011;50327;51.328;12.324;2023-02-21T00:32:18;6.15;;;3.03;;
64075;SDS011;50327;51.328;12.324;2023-02-21T00:35:02;8.55;;;3.78;;
64075;SDS011;50327;51.328;12.324;2023-02-21T00:37:49;8.50;;;3.30;;
64075;SDS011;50327;51.328;12.324;2023-02-21T00:40:34;6.07;;;3.53;;
64075;SDS011;50327;51.328;12.324;2023-02-21T00:43:18;5.50;;;2.75;;
64075;SDS011;50327;51.328;12.324;2023-02-21T00:46:02;8.05;;;3.15;;
64075;SDS011;50327;51.328;12.324;2023-02-21T00:48:47;7.07;;;3.63;;
64075;SDS011;50327;51.328;12.324;2023-02-21T00:51:31;6.00;;;2.97;;
64075;SDS011;50327;51.328;12.324;2023-02-21T00:54:14;7.00;;;2.85;;
64075;SDS011;50327;51.328;12.324;2023-02-21T00:56:58;7.00;;;3.38;;
64075;SDS011;50327;51.328;12.324;2023-02-21T00:59:42;6.80;;;3.58;;
64075;SDS011;50327;51.328;12.324;2023-02-21T01:02:26;8.02;;;3.80;;
64075;SDS011;50327;51.328;12.324;2023-02-21T01:05:10;6.28;;;3.08;;
64075;SDS011;50327;51.328;12.324;2023-02-21T01:07:54;7.10;;;3.22;;
64075;SDS011;50327;51.328;12.324;2023-02-21T01:10:38;6.18;;;2.80;;
64075;SDS011;50327;51.328;12.324;2023-02-21T01:13:22;7.10;;;3.00;;
64075;SDS011;50327;51.328;12.324;2023-02-21T01:16:06;6.90;;;3.05;;
64075;SDS011;50327;51.328;12.324;2023-02-21T01:18:50;6.55;;;2.92;;
64075;SDS011;50327;51.328;12.324;2023-02-21T01:21:34;7.47;;;2.80;;
64075;SDS011;50327;51.328;12.324;2023-02-21T01:24:18;5.72;;;2.75;;
64075;SDS011;50327;51.328;12.324;2023-02-21T01:27:02;6.22;;;3.10;;
64075;SDS011;50327;51.328;12.324;2023-02-21T01:29:46;5.85;;;2.65;;
64075;SDS011;50327;51.328;12.324;2023-02-21T01:32:30;5.32;;;2.58;;
64075;SDS011;50327;51.328;12.324;2023-02-21T01:35:14;7.22;;;3.17;;
64075;SDS011;50327;51.328;12.324;2023-02-21T01:37:58;6.47;;;3.03;;
64075;SDS011;50327;51.328;12.324;2023-02-21T01:40:42;8.65;;;3.03;;
64075;SDS011;50327;51.328;12.324;2023-02-21T01:43:27;8.35;;;3.13;;
64075;SDS011;50327;51.328;12.324;2023-02-21T01:46:21;9.05;;;2.90;;
64075;SDS011;50327;51.328;12.324;2023-02-21T01:49:07;7.88;;;3.10;;
64075;SDS011;50327;51.328;12.324;2023-02-21T01:51:55;6.05;;;3.03;;
64075;SDS011;50327;51.328;12.324;2023-02-21T01:54:43;8.48;;;3.95;;
64075;SDS011;50327;51.328;12.324;2023-02-21T01:57:30;6.68;;;2.75;;
64075;SDS011;50327;51.328;12.324;2023-02-21T02:00:15;6.78;;;3.42;;
64075;SDS011;50327;51.328;12.324;2023-02-21T02:03:03;7.85;;;3.33;;
64075;SDS011;50327;51.328;12.324;2023-02-21T02:05:52;7.70;;;3.47;;
64075;SDS011;50327;51.328;12.324;2023-02-21T02:08:38;5.60;;;2.50;;
64075;SDS011;50327;51.328;12.324;2023-02-21T02:11:49;8.65;;;3.95;;
64075;SDS011;50327;51.328;12.324;2023-02-21T02:20:54;7.05;;;3.40;;
64075;SDS011;50327;51.328;12.324;2023-02-21T02:34:37;12.35;;;4.63;;
64075;SDS011;50327;51.328;12.324;2023-02-21T02:40:04;11.63;;;4.30;;
64075;SDS011;50327;51.328;12.324;2023-02-21T02:45:07;8.52;;;4.20;;
64075;SDS011;50327;51.328;12.324;2023-02-21T02:47:39;12.00;;;4.85;;
64075;SDS011;50327;51.328;12.324;2023-02-21T02:50:08;12.30;;;4.75;;
64075;SDS011;50327;51.328;12.324;2023-02-21T02:52:36;10.73;;;4.72;;
64075;SDS011;50327;51.328;12.324;2023-02-21T02:55:04;11.45;;;4.88;;
64075;SDS011;50327;51.328;12.324;2023-02-21T02:57:46;11.48;;;5.38;;
64075;SDS011;50327;51.328;12.324;2023-02-21T03:00:13;8.38;;;4.68;;
64075;SDS011;50327;51.328;12.324;2023-02-21T03:05:42;13.60;;;5.35;;
64075;SDS011;50327;51.328;12.324;2023-02-21T03:16:32;10.88;;;5.45;;
64075;SDS011;50327;51.328;12.324;2023-02-21T03:19:03;12.95;;;5.57;;
64075;SDS011;50327;51.328;12.324;2023-02-21T03:21:38;11.88;;;4.80;;
64075;SDS011;50327;51.328;12.324;2023-02-21T03:24:25;13.32;;;5.45;;
64075;SDS011;50327;51.328;12.324;2023-02-21T03:26:56;11.48;;;5.30;;
64075;SDS011;50327;51.328;12.324;2023-02-21T03:29:26;13.02;;;5.53;;
64075;SDS011;50327;51.328;12.324;2023-02-21T03:32:00;10.65;;;5.93;;
64075;SDS011;50327;51.328;12.324;2023-02-21T03:34:40;12.77;;;5.32;;
64075;SDS011;50327;51.328;12.324;2023-02-21T03:37:07;14.57;;;5.85;;
64075;SDS011;50327;51.328;12.324;2023-02-21T03:39:35;12.82;;;6.40;;
64075;SDS011;50327;51.328;12.324;2023-02-21T03:42:01;11.23;;;5.53;;
64075;SDS011;50327;51.328;12.324;2023-02-21T03:44:26;13.98;;;6.78;;
64075;SDS011;50327;51.328;12.324;2023-02-21T03:46:52;14.15;;;6.35;;
64075;SDS011;50327;51.328;12.324;2023-02-21T03:49:17;13.07;;;6.32;;
64075;SDS011;50327;51.328;12.324;2023-02-21T03:51:43;10.40;;;5.57;;
64075;SDS011;50327;51.328;12.324;2023-02-21T03:54:08;15.82;;;5.70;;
64075;SDS011;50327;51.328;12.324;2023-02-21T03:56:33;13.60;;;5.40;;
64075;SDS011;50327;51.328;12.324;2023-02-21T03:58:59;13.65;;;6.10;;
64075;SDS011;50327;51.328;12.324;2023-02-21T04:01:24;13.32;;;6.82;;
64075;SDS011;50327;51.328;12.324;2023-02-21T04:03:50;12.50;;;6.00;;
64075;SDS011;50327;51.328;12.324;2023-02-21T04:06:15;15.15;;;5.97;;
64075;SDS011;50327;51.328;12.324;2023-02-21T04:08:41;12.95;;;6.22;;
64075;SDS011;50327;51.328;12.324;2023-02-21T04:11:06;11.02;;;6.25;;
64075;SDS011;50327;51.328;12.324;2023-02-21T04:13:32;14.32;;;6.40;;
64075;SDS011;50327;51.328;12.324;2023-02-21T04:15:57;13.07;;;6.10;;
64075;SDS011;50327;51.328;12.324;2023-02-21T04:18:23;15.63;;;6.90;;
64075;SDS011;50327;51.328;12.324;2023-02-21T04:20:48;16.45;;;7.75;;
64075;SDS011;50327;51.328;12.324;2023-02-21T04:23:16;14.18;;;6.50;;
64075;SDS011;50327;51.328;12.324;2023-02-21T04:25:43;15.02;;;6.88;;
64075;SDS011;50327;51.328;12.324;2023-02-21T04:28:08;12.43;;;6.18;;
64075;SDS011;50327;51.328;12.324;2023-02-21T04:30:33;13.73;;;6.50;;
64075;SDS011;50327;51.328;12.324;2023-02-21T04:32:59;13.82;;;6.30;;
64075;SDS011;50327;51.328;12.324;2023-02-21T04:35:24;16.45;;;6.53;;
64075;SDS011;50327;51.328;12.324;2023-02-21T04:37:49;13.15;;;6.03;;
64075;SDS011;50327;51.328;12.324;2023-02-21T04:40:15;13.13;;;6.50;;
64075;SDS011;50327;51.328;12.324;2023-02-21T04:42:40;14.23;;;6.70;;
64075;SDS011;50327;51.328;12.324;2023-02-21T04:45:06;14.23;;;7.03;;
64075;SDS011;50327;51.328;12.324;2023-02-21T04:47:31;13.63;;;6.05;;
64075;SDS011;50327;51.328;12.324;2023-02-21T04:49:57;15.80;;;7.20;;
64075;SDS011;50327;51.328;12.324;2023-02-21T04:52:22;16.92;;;7.60;;
64075;SDS011;50327;51.328;12.324;2023-02-21T04:54:48;16.05;;;6.95;;
64075;SDS011;50327;51.328;12.324;2023-02-21T04:57:14;18.83;;;7.70;;
64075;SDS011;50327;51.328;12.324;2023-02-21T04:59:40;15.68;;;7.25;;
64075;SDS011;50327;51.328;12.324;2023-02-21T05:02:06;17.52;;;8.32;;
64075;SDS011;50327;51.328;12.324;2023-02-21T05:04:32;17.08;;;7.95;;
64075;SDS011;50327;51.328;12.324;2023-02-21T05:07:01;13.93;;;7.03;;
64075;SDS011;50327;51.328;12.324;2023-02-21T05:09:28;16.77;;;7.93;;
64075;SDS011;50327;51.328;12.324;2023-02-21T05:11:53;15.52;;;7.78;;
64075;SDS011;50327;51.328;12.324;2023-02-21T05:14:18;15.02;;;7.07;;
64075;SDS011;50327;51.328;12.324;2023-02-21T05:16:44;16.58;;;7.53;;
64075;SDS011;50327;51.328;12.324;2023-02-21T05:19:09;15.52;;;8.48;;
64075;SDS011;50327;51.328;12.324;2023-02-21T05:21:35;22.25;;;8.38;;
64075;SDS011;50327;51.328;12.324;2023-02-21T05:24:02;19.90;;;7.93;;
64075;SDS011;50327;51.328;12.324;2023-02-21T05:26:32;16.00;;;7.57;;
64075;SDS011;50327;51.328;12.324;2023-02-21T05:29:02;16.55;;;8.05;;
64075;SDS011;50327;51.328;12.324;2023-02-21T05:31:28;15.75;;;7.47;;
64075;SDS011;50327;51.328;12.324;2023-02-21T05:33:53;20.35;;;8.60;;
64075;SDS011;50327;51.328;12.324;2023-02-21T05:36:19;18.88;;;9.32;;
64075;SDS011;50327;51.328;12.324;2023-02-21T05:38:48;16.52;;;8.43;;
64075;SDS011;50327;51.328;12.324;2023-02-21T05:41:15;14.65;;;7.55;;
64075;SDS011;50327;51.328;12.324;2023-02-21T05:43:43;18.33;;;8.57;;
64075;SDS011;50327;51.328;12.324;2023-02-21T05:48:48;17.02;;;8.70;;
64075;SDS011;50327;51.328;12.324;2023-02-21T05:51:14;24.10;;;8.75;;
64075;SDS011;50327;51.328;12.324;2023-02-21T05:53:40;18.17;;;7.90;;
64075;SDS011;50327;51.328;12.324;2023-02-21T05:56:06;17.60;;;7.43;;
64075;SDS011;50327;51.328;12.324;2023-02-21T05:58:31;16.83;;;8.50;;
64075;SDS011;50327;51.328;12.324;2023-02-21T06:00:56;23.10;;;8.25;;
64075;SDS011;50327;51.328;12.324;2023-02-21T06:03:22;18.23;;;8.55;;
64075;SDS011;50327;51.328;12.324;2023-02-21T06:05:47;18.38;;;7.78;;
64075;SDS011;50327;51.328;12.324;2023-02-21T06:08:12;18.15;;;8.48;;
64075;SDS011;50327;51.328;12.324;2023-02-21T06:10:38;20.23;;;9.50;;
64075;SDS011;50327;51.328;12.324;2023-02-21T06:13:03;21.88;;;8.43;;
64075;SDS011;50327;51.328;12.324;2023-02-21T06:15:28;18.33;;;8.77;;
64075;SDS011;50327;51.328;12.324;2023-02-21T06:17:54;19.35;;;7.65;;
64075;SDS011;50327;51.328;12.324;2023-02-21T06:20:19;19.30;;;9.25;;
64075;SDS011;50327;51.328;12.324;2023-02-21T06:22:45;17.20;;;8.40;;
64075;SDS011;50327;51.328;12.324;2023-02-21T06:25:12;15.80;;;8.18;;
64075;SDS011;50327;51.328;12.324;2023-02-21T06:27:37;19.23;;;9.20;;
64075;SDS011;50327;51.328;12.324;2023-02-21T06:30:04;17.90;;;7.90;;
64075;SDS011;50327;51.328;12.324;2023-02-21T06:32:30;18.02;;;8.45;;
64075;SDS011;50327;51.328;12.324;2023-02-21T06:34:55;21.00;;;9.40;;
64075;SDS011;50327;51.328;12.324;2023-02-21T06:37:21;21.75;;;8.70;;
64075;SDS011;50327;51.328;12.324;2023-02-21T06:39:46;19.02;;;9.00;;
64075;SDS011;50327;51.328;12.324;2023-02-21T06:42:15;18.73;;;8.35;;
64075;SDS011;50327;51.328;12.324;2023-02-21T06:44:45;19.08;;;9.30;;
64075;SDS011;50327;51.328;12.324;2023-02-21T06:47:12;17.38;;;8.23;;
64075;SDS011;50327;51.328;12.324;2023-02-21T06:49:38;17.15;;;8.05;;
64075;SDS011;50327;51.328;12.324;2023-02-21T06:52:04;28.10;;;10.05;;
64075;SDS011;50327;51.328;12.324;2023-02-21T06:54:30;17.20;;;8.18;;
64075;SDS011;50327;51.328;12.324;2023-02-21T06:56:55;17.85;;;9.00;;
64075;SDS011;50327;51.328;12.324;2023-02-21T06:59:21;16.13;;;8.23;;
64075;SDS011;50327;51.328;12.324;2023-02-21T07:01:47;20.23;;;9.35;;
64075;SDS011;50327;51.328;12.324;2023-02-21T07:04:12;19.50;;;9.07;;
64075;SDS011;50327;51.328;12.324;2023-02-21T07:06:37;16.60;;;8.25;;
64075;SDS011;50327;51.328;12.324;2023-02-21T07:09:03;17.70;;;8.65;;
64075;SDS011;50327;51.328;12.324;2023-02-21T07:11:29;17.63;;;8.50;;
64075;SDS011;50327;51.328;12.324;2023-02-21T07:13:55;21.48;;;9.45;;
64075;SDS011;50327;51.328;12.324;2023-02-21T07:16:23;15.43;;;8.02;;
64075;SDS011;50327;51.328;12.324;2023-02-21T07:18:48;20.17;;;8.45;;
64075;SDS011;50327;51.328;12.324;2023-02-21T07:21:14;15.80;;;8.05;;
64075;SDS011;50327;51.328;12.324;2023-02-21T07:23:41;21.88;;;9.10;;
64075;SDS011;50327;51.328;12.324;2023-02-21T07:26:08;19.83;;;8.30;;
64075;SDS011;50327;51.328;12.324;2023-02-21T07:28:33;16.92;;;8.57;;
64075;SDS011;50327;51.328;12.324;2023-02-21T07:30:58;17.25;;;8.63;;
64075;SDS011;50327;51.328;12.324;2023-02-21T07:33:24;18.50;;;8.10;;
64075;SDS011;50327;51.328;12.324;2023-02-21T07:35:49;18.05;;;7.68;;
64075;SDS011;50327;51.328;12.324;2023-02-21T07:38:18;16.23;;;7.28;;
64075;SDS011;50327;51.328;12.324;2023-02-21T07:40:45;14.25;;;7.30;;
64075;SDS011;50327;51.328;12.324;2023-02-21T07:43:10;18.38;;;7.57;;
64075;SDS011;50327;51.328;12.324;2023-02-21T07:45:35;16.20;;;7.45;;
64075;SDS011;50327;51.328;12.324;2023-02-21T07:48:01;15.88;;;8.18;;
64075;SDS011;50327;51.328;12.324;2023-02-21T07:50:26;14.98;;;8.30;;
64075;SDS011;50327;51.328;12.324;2023-02-21T07:52:52;23.75;;;7.57;;
64075;SDS011;50327;51.328;12.324;2023-02-21T07:55:17;17.92;;;8.20;;
64075;SDS011;50327;51.328;12.324;2023-02-21T07:57:42;17.13;;;7.63;;
64075;SDS011;50327;51.328;12.324;2023-02-21T08:00:09;17.10;;;8.13;;
64075;SDS011;50327;51.328;12.324;2023-02-21T08:02:35;18.92;;;7.97;;
64075;SDS011;50327;51.328;12.324;2023-02-21T08:05:00;17.40;;;8.10;;
64075;SDS011;50327;51.328;12.324;2023-02-21T08:07:25;16.85;;;7.75;;
64075;SDS011;50327;51.328;12.324;2023-02-21T08:09:51;16.10;;;7.80;;
64075;SDS011;50327;51.328;12.324;2023-02-21T08:12:16;18.90;;;7.95;;
64075;SDS011;50327;51.328;12.324;2023-02-21T08:14:41;17.30;;;8.70;;
64075;SDS011;50327;51.328;12.324;2023-02-21T08:17:07;17.48;;;7.85;;
64075;SDS011;50327;51.328;12.324;2023-02-21T08:19:32;17.52;;;7.38;;
64075;SDS011;50327;51.328;12.324;2023-02-21T08:21:58;17.15;;;7.55;;
64075;SDS011;50327;51.328;12.324;2023-02-21T08:24:23;15.30;;;7.53;;
64075;SDS011;50327;51.328;12.324;2023-02-21T08:26:49;16.98;;;8.48;;
64075;SDS011;50327;51.328;12.324;2023-02-21T08:29:14;19.10;;;7.90;;
64075;SDS011;50327;51.328;12.324;2023-02-21T08:31:42;18.80;;;8.10;;
64075;SDS011;50327;51.328;12.324;2023-02-21T08:34:09;20.02;;;8.68;;
64075;SDS011;50327;51.328;12.324;2023-02-21T08:36:36;16.80;;;8.65;;
64075;SDS011;50327;51.328;12.324;2023-02-21T08:39:04;19.40;;;7.95;;
64075;SDS011;50327;51.328;12.324;2023-02-21T08:41:35;16.70;;;7.55;;
64075;SDS011;50327;51.328;12.324;2023-02-21T08:44:02;19.35;;;8.23;;
64075;SDS011;50327;51.328;12.324;2023-02-21T08:46:28;19.40;;;8.30;;
64075;SDS011;50327;51.328;12.324;2023-02-21T08:48:53;17.15;;;7.57;;
64075;SDS011;50327;51.328;12.324;2023-02-21T08:51:23;21.35;;;8.57;;
64075;SDS011;50327;51.328;12.324;2023-02-21T08:53:50;19.90;;;8.82;;
64075;SDS011;50327;51.328;12.324;2023-02-21T08:56:19;16.60;;;8.27;;
64075;SDS011;50327;51.328;12.324;2023-02-21T08:58:45;19.92;;;8.13;;
64075;SDS011;50327;51.328;12.324;2023-02-21T09:01:11;19.60;;;8.48;;
64075;SDS011;50327;51.328;12.324;2023-02-21T09:03:37;15.15;;;7.72;;
64075;SDS011;50327;51.328;12.324;2023-02-21T09:06:02;17.98;;;8.38;;
64075;SDS011;50327;51.328;12.324;2023-02-21T09:08:28;16.77;;;8.10;;
64075;SDS011;50327;51.328;12.324;2023-02-21T09:10:55;15.15;;;7.38;;
64075;SDS011;50327;51.328;12.324;2023-02-21T09:13:24;16.92;;;9.05;;
64075;SDS011;50327;51.328;12.324;2023-02-21T09:15:50;23.63;;;8.13;;
64075;SDS011;50327;51.328;12.324;2023-02-21T09:18:16;21.05;;;9.05;;
64075;SDS011;50327;51.328;12.324;2023-02-21T09:20:41;21.80;;;9.77;;
64075;SDS011;50327;51.328;12.324;2023-02-21T09:23:06;18.40;;;8.85;;
64075;SDS011;50327;51.328;12.324;2023-02-21T09:25:32;20.48;;;9.25;;
64075;SDS011;50327;51.328;12.324;2023-02-21T09:27:57;20.08;;;9.13;;
64075;SDS011;50327;51.328;12.324;2023-02-21T09:30:25;21.10;;;9.63;;
64075;SDS011;50327;51.328;12.324;2023-02-21T09:32:50;23.08;;;10.05;;
64075;SDS011;50327;51.328;12.324;2023-02-21T09:35:16;16.30;;;8.38;;
64075;SDS011;50327;51.328;12.324;2023-02-21T09:37:43;17.35;;;8.68;;
64075;SDS011;50327;51.328;12.324;2023-02-21T09:42:52;16.73;;;8.35;;
64075;SDS011;50327;51.328;12.324;2023-02-21T09:45:20;23.13;;;8.80;;
64075;SDS011;50327;51.328;12.324;2023-02-21T09:47:50;19.08;;;9.38;;
64075;SDS011;50327;51.328;12.324;2023-02-21T09:50:20;17.70;;;8.88;;
64075;SDS011;50327;51.328;12.324;2023-02-21T09:52:51;19.00;;;8.48;;
64075;SDS011;50327;51.328;12.324;2023-02-21T09:55:38;20.20;;;9.13;;
64075;SDS011;50327;51.328;12.324;2023-02-21T09:58:08;20.33;;;8.48;;
64075;SDS011;50327;51.328;12.324;2023-02-21T10:00:39;16.95;;;8.80;;
64075;SDS011;50327;51.328;12.324;2023-02-21T10:08:44;15.55;;;7.40;;
64075;SDS011;50327;51.328;12.324;2023-02-21T10:12:05;14.27;;;7.20;;
64075;SDS011;50327;51.328;12.324;2023-02-21T10:19:43;18.80;;;7.78;;
64075;SDS011;50327;51.328;12.324;2023-02-21T10:22:18;17.58;;;8.15;;
64075;SDS011;50327;51.328;12.324;2023-02-21T10:24:46;23.40;;;7.53;;
64075;SDS011;50327;51.328;12.324;2023-02-21T10:27:15;16.83;;;7.57;;
64075;SDS011;50327;51.328;12.324;2023-02-21T10:29:45;14.02;;;7.40;;
64075;SDS011;50327;51.328;12.324;2023-02-21T10:32:16;16.77;;;7.45;;
64075;SDS011;50327;51.328;12.324;2023-02-21T10:34:42;18.73;;;6.93;;
64075;SDS011;50327;51.328;12.324;2023-02-21T10:40:00;17.38;;;7.30;;
64075;SDS011;50327;51.328;12.324;2023-02-21T10:42:35;18.95;;;8.13;;
64075;SDS011;50327;51.328;12.324;2023-02-21T10:45:05;12.98;;;6.70;;
64075;SDS011;50327;51.328;12.324;2023-02-21T10:50:35;13.80;;;7.40;;
64075;SDS011;50327;51.328;12.324;2023-02-21T10:53:05;16.50;;;7.25;;
64075;SDS011;50327;51.328;12.324;2023-02-21T10:55:31;14.13;;;6.88;;
64075;SDS011;50327;51.328;12.324;2023-02-21T10:57:57;15.77;;;7.15;;
64075;SDS011;50327;51.328;12.324;2023-02-21T11:00:31;15.82;;;6.85;;
64075;SDS011;50327;51.328;12.324;2023-02-21T11:03:11;18.20;;;8.43;;
64075;SDS011;50327;51.328;12.324;2023-02-21T11:05:40;14.55;;;6.88;;
64075;SDS011;50327;51.328;12.324;2023-02-21T11:08:06;15.25;;;6.78;;
64075;SDS011;50327;51.328;12.324;2023-02-21T11:10:41;13.63;;;6.43;;
64075;SDS011;50327;51.328;12.324;2023-02-21T11:15:41;15.13;;;7.70;;
64075;SDS011;50327;51.328;12.324;2023-02-21T11:20:34;20.08;;;7.97;;
64075;SDS011;50327;51.328;12.324;2023-02-21T11:22:59;14.23;;;7.03;;
64075;SDS011;50327;51.328;12.324;2023-02-21T11:25:28;16.05;;;7.05;;
64075;SDS011;50327;51.328;12.324;2023-02-21T11:30:37;14.38;;;6.28;;
64075;SDS011;50327;51.328;12.324;2023-02-21T11:33:06;18.08;;;5.22;;
64075;SDS011;50327;51.328;12.324;2023-02-21T11:35:33;11.23;;;4.70;;
64075;SDS011;50327;51.328;12.324;2023-02-21T11:38:04;12.05;;;4.72;;
64075;SDS011;50327;51.328;12.324;2023-02-21T11:45:49;13.65;;;5.18;;
64075;SDS011;50327;51.328;12.324;2023-02-21T11:48:30;11.77;;;5.50;;
64075;SDS011;50327;51.328;12.324;2023-02-21T11:51:03;16.30;;;6.35;;
64075;SDS011;50327;51.328;12.324;2023-02-21T11:53:35;15.02;;;6.32;;
64075;SDS011;50327;51.328;12.324;2023-02-21T12:01:55;16.63;;;7.00;;
64075;SDS011;50327;51.328;12.324;2023-02-21T12:09:58;16.20;;;6.85;;
64075;SDS011;50327;51.328;12.324;2023-02-21T12:12:43;16.70;;;5.68;;
64075;SDS011;50327;51.328;12.324;2023-02-21T12:15:46;14.93;;;5.28;;
64075;SDS011;50327;51.328;12.324;2023-02-21T12:18:32;12.35;;;4.57;;
64075;SDS011;50327;51.328;12.324;2023-02-21T12:26:38;12.13;;;4.65;;
64075;SDS011;50327;51.328;12.324;2023-02-21T12:29:29;7.55;;;3.72;;
64075;SDS011;50327;51.328;12.324;2023-02-21T12:45:55;12.35;;;5.68;;
64075;SDS011;50327;51.328;12.324;2023-02-21T12:48:39;16.23;;;7.47;;
64075;SDS011;50327;51.328;12.324;2023-02-21T12:51:06;15.30;;;6.65;;
64075;SDS011;50327;51.328;12.324;2023-02-21T12:56:12;12.10;;;5.63;;
64075;SDS011;50327;51.328;12.324;2023-02-21T13:01:40;14.85;;;6.95;;
64075;SDS011;50327;51.328;12.324;2023-02-21T13:07:08;15.23;;;6.05;;
64075;SDS011;50327;51.328;12.324;2023-02-21T13:09:39;12.25;;;5.85;;
64075;SDS011;50327;51.328;12.324;2023-02-21T13:12:20;11.48;;;5.65;;
64075;SDS011;50327;51.328;12.324;2023-02-21T13:17:54;15.85;;;5.82;;
64075;SDS011;50327;51.328;12.324;2023-02-21T13:20:24;15.80;;;5.85;;
64075;SDS011;50327;51.328;12.324;2023-02-21T13:26:15;10.23;;;5.18;;
64075;SDS011;50327;51.328;12.324;2023-02-21T13:28:45;14.07;;;5.80;;
64075;SDS011;50327;51.328;12.324;2023-02-21T13:31:48;14.65;;;5.82;;
64075;SDS011;50327;51.328;12.324;2023-02-21T13:34:07;11.98;;;5.88;;
64075;SDS011;50327;51.328;12.324;2023-02-21T13:42:05;15.25;;;6.18;;
64075;SDS011;50327;51.328;12.324;2023-02-21T13:47:09;13.25;;;6.10;;
64075;SDS011;50327;51.328;12.324;2023-02-21T13:57:34;12.38;;;5.18;;
64075;SDS011;50327;51.328;12.324;2023-02-21T14:08:17;11.45;;;4.57;;
64075;SDS011;50327;51.328;12.324;2023-02-21T14:10:55;14.40;;;5.13;;
64075;SDS011;50327;51.328;12.324;2023-02-21T14:18:38;10.60;;;4.85;;
64075;SDS011;50327;51.328;12.324;2023-02-21T14:22:01;12.02;;;4.47;;
64075;SDS011;50327;51.328;12.324;2023-02-21T14:24:12;9.32;;;4.35;;
64075;SDS011;50327;51.328;12.324;2023-02-21T14:34:32;10.07;;;4.78;;
64075;SDS011;50327;51.328;12.324;2023-02-21T14:37:02;12.13;;;4.25;;
64075;SDS011;50327;51.328;12.324;2023-02-21T14:39:38;10.70;;;4.15;;
64075;SDS011;50327;51.328;12.324;2023-02-21T14:59:09;8.48;;;2.55;;
64075;SDS011;50327;51.328;12.324;2023-02-21T15:04:38;7.18;;;2.00;;
64075;SDS011;50327;51.328;12.324;2023-02-21T15:09:35;4.45;;;2.10;;
64075;SDS011;50327;51.328;12.324;2023-02-21T15:12:02;7.90;;;2.92;;
64075;SDS011;50327;51.328;12.324;2023-02-21T15:14:39;5.68;;;2.47;;
64075;SDS011;50327;51.328;12.324;2023-02-21T15:17:15;6.40;;;2.50;;
64075;SDS011;50327;51.328;12.324;2023-02-21T15:19:44;6.68;;;2.78;;
64075;SDS011;50327;51.328;12.324;2023-02-21T15:22:23;7.43;;;2.58;;
64075;SDS011;50327;51.328;12.324;2023-02-21T15:24:56;5.78;;;2.03;;
64075;SDS011;50327;51.328;12.324;2023-02-21T15:27:35;6.18;;;2.67;;
64075;SDS011;50327;51.328;12.324;2023-02-21T15:35:33;5.22;;;2.42;;
64075;SDS011;50327;51.328;12.324;2023-02-21T15:38:02;7.35;;;2.72;;
64075;SDS011;50327;51.328;12.324;2023-02-21T15:40:33;10.50;;;2.65;;
64075;SDS011;50327;51.328;12.324;2023-02-21T15:43:00;8.10;;;3.60;;
64075;SDS011;50327;51.328;12.324;2023-02-21T15:45:29;7.43;;;3.15;;
64075;SDS011;50327;51.328;12.324;2023-02-21T15:47:59;6.22;;;2.80;;
64075;SDS011;50327;51.328;12.324;2023-02-21T15:50:28;6.70;;;2.80;;
64075;SDS011;50327;51.328;12.324;2023-02-21T15:52:54;8.50;;;2.58;;
64075;SDS011;50327;51.328;12.324;2023-02-21T16:00:33;5.40;;;1.70;;
64075;SDS011;50327;51.328;12.324;2023-02-21T16:06:20;5.10;;;2.00;;
64075;SDS011;50327;51.328;12.324;2023-02-21T16:14:16;6.53;;;2.70;;
64075;SDS011;50327;51.328;12.324;2023-02-21T16:16:42;12.15;;;2.90;;
64075;SDS011;50327;51.328;12.324;2023-02-21T16:19:08;10.02;;;2.90;;
64075;SDS011;50327;51.328;12.324;2023-02-21T16:21:34;5.65;;;2.20;;
64075;SDS011;50327;51.328;12.324;2023-02-21T16:24:13;9.50;;;2.33;;
64075;SDS011;50327;51.328;12.324;2023-02-21T16:27:02;4.93;;;2.13;;
64075;SDS011;50327;51.328;12.324;2023-02-21T16:29:31;7.68;;;2.72;;
64075;SDS011;50327;51.328;12.324;2023-02-21T16:31:56;5.18;;;2.25;;
64075;SDS011;50327;51.328;12.324;2023-02-21T16:34:22;7.72;;;2.83;;
64075;SDS011;50327;51.328;12.324;2023-02-21T16:36:48;4.68;;;2.13;;
64075;SDS011;50327;51.328;12.324;2023-02-21T16:39:18;5.40;;;2.50;;
64075;SDS011;50327;51.328;12.324;2023-02-21T16:41:44;6.25;;;2.70;;
64075;SDS011;50327;51.328;12.324;2023-02-21T16:44:09;5.22;;;2.70;;
64075;SDS011;50327;51.328;12.324;2023-02-21T16:46:35;8.02;;;2.75;;
64075;SDS011;50327;51.328;12.324;2023-02-21T16:49:00;10.27;;;2.90;;
64075;SDS011;50327;51.328;12.324;2023-02-21T16:51:25;5.95;;;2.67;;
64075;SDS011;50327;51.328;12.324;2023-02-21T16:53:57;7.25;;;3.00;;
64075;SDS011;50327;51.328;12.324;2023-02-21T16:56:22;8.10;;;3.35;;
64075;SDS011;50327;51.328;12.324;2023-02-21T16:58:49;7.05;;;3.15;;
64075;SDS011;50327;51.328;12.324;2023-02-21T17:01:21;8.52;;;3.00;;
64075;SDS011;50327;51.328;12.324;2023-02-21T17:03:50;9.80;;;3.30;;
64075;SDS011;50327;51.328;12.324;2023-02-21T17:06:16;7.70;;;3.58;;
64075;SDS011;50327;51.328;12.324;2023-02-21T17:08:45;7.60;;;3.17;;
64075;SDS011;50327;51.328;12.324;2023-02-21T17:11:11;8.65;;;3.42;;
64075;SDS011;50327;51.328;12.324;2023-02-21T17:13:36;7.40;;;3.33;;
64075;SDS011;50327;51.328;12.324;2023-02-21T17:16:01;9.57;;;3.42;;
64075;SDS011;50327;51.328;12.324;2023-02-21T17:18:28;6.25;;;3.47;;
64075;SDS011;50327;51.328;12.324;2023-02-21T17:20:55;8.45;;;3.85;;
64075;SDS011;50327;51.328;12.324;2023-02-21T17:23:21;7.65;;;3.05;;
64075;SDS011;50327;51.328;12.324;2023-02-21T17:25:47;7.90;;;3.13;;
64075;SDS011;50327;51.328;12.324;2023-02-21T17:28:12;9.15;;;4.00;;
64075;SDS011;50327;51.328;12.324;2023-02-21T17:30:37;7.57;;;3.25;;
64075;SDS011;50327;51.328;12.324;2023-02-21T17:33:03;6.50;;;2.92;;
64075;SDS011;50327;51.328;12.324;2023-02-21T17:35:29;8.02;;;3.17;;
64075;SDS011;50327;51.328;12.324;2023-02-21T17:37:54;7.97;;;3.33;;
64075;SDS011;50327;51.328;12.324;2023-02-21T17:40:25;5.55;;;3.03;;
64075;SDS011;50327;51.328;12.324;2023-02-21T17:42:50;8.60;;;3.17;;
64075;SDS011;50327;51.328;12.324;2023-02-21T17:45:16;9.07;;;3.40;;
64075;SDS011;50327;51.328;12.324;2023-02-21T17:47:43;6.60;;;3.33;;
64075;SDS011;50327;51.328;12.324;2023-02-21T17:50:09;9.20;;;3.80;;
64075;SDS011;50327;51.328;12.324;2023-02-21T17:52:34;9.70;;;4.18;;
64075;SDS011;50327;51.328;12.324;2023-02-21T17:55:00;7.95;;;3.47;;
64075;SDS011;50327;51.328;12.324;2023-02-21T17:57:32;16.52;;;3.97;;
64075;SDS011;50327;51.328;12.324;2023-02-21T18:00:06;11.55;;;4.53;;
64075;SDS011;50327;51.328;12.324;2023-02-21T18:02:36;7.82;;;3.92;;